sensor_id;sensor_type;location;lat;lon;timestamp;temperature;humidity
8332;DHT22;4203;48.144;14.118;2022-12-18T00:00:00;-8.60;99.90
8332;DHT22;4203;48.144;14.118;2022-12-18T00:02:27;-8.70;99.90
8332;DHT22;4203;48.144;14.118;2022-12-18T00:04:55;-8.60;99.90
8332;DHT22;4203;48.144;14.118;2022-12-18T00:07:24;-8.50;99.90
8332;DHT22;4203;48.144;14.118;2022-12-18T00:09:51;-8.50;99.90
8332;DHT22;4203;48.144;14.118;2022-12-18T00:12:19;-8.40;99.90
8332;DHT22;4203;48.144;14.118;2022-12-18T00:14:46;-8.30;99.90
8332;DHT22;4203;48.144;14.118;2022-12-18T00:17:14;-8.20;99.90
8332;DHT22;4203;48.144;14.118;2022-12-18T00:19:42;-8.10;99.90
8332;DHT22;4203;48.144;14.118;2022-12-18T00:22:09;-8.00;99.90
8332;DHT22;4203;48.144;14.118;2022-12-18T00:24:36;-7.80;99.90
8332;DHT22;4203;48.144;14.118;2022-12-18T00:27:03;-7.70;99.90
8332;DHT22;4203;48.144;14.118;2022-12-18T00:29:30;-7.70;99.90
8332;DHT22;4203;48.144;14.118;2022-12-18T00:31:57;-7.70;99.90
8332;DHT22;4203;48.144;14.118;2022-12-18T00:34:26;-7.60;99.90
8332;DHT22;4203;48.144;14.118;2022-12-18T00:36:53;-7.50;99.90
8332;DHT22;4203;48.144;14.118;2022-12-18T00:39:20;-7.50;99.90
8332;DHT22;4203;48.144;14.118;2022-12-18T00:41:47;-7.40;99.90
8332;DHT22;4203;48.144;14.118;2022-12-18T00:44:32;-7.10;99.90
8332;DHT22;4203;48.144;14.118;2022-12-18T00:46:59;-7.30;99.90
8332;DHT22;4203;48.144;14.118;2022-12-18T00:49:27;-7.20;99.90
8332;DHT22;4203;48.144;14.118;2022-12-18T00:51:54;-7.20;99.90
8332;DHT22;4203;48.144;14.118;2022-12-18T00:54:22;-7.20;99.90
8332;DHT22;4203;48.144;14.118;2022-12-18T00:56:49;-7.10;99.90
8332;DHT22;4203;48.144;14.118;2022-12-18T00:59:16;-7.00;99.90
8332;DHT22;4203;48.144;14.118;2022-12-18T01:01:44;-6.70;99.90
8332;DHT22;4203;48.144;14.118;2022-12-18T01:04:12;-6.90;99.90
8332;DHT22;4203;48.144;14.118;2022-12-18T01:06:41;-6.90;99.90
8332;DHT22;4203;48.144;14.118;2022-12-18T01:09:08;-6.80;99.90
8332;DHT22;4203;48.144;14.118;2022-12-18T01:11:35;-6.80;99.90
8332;DHT22;4203;48.144;14.118;2022-12-18T01:14:02;-6.90;99.90
8332;DHT22;4203;48.144;14.118;2022-12-18T01:16:29;-6.70;99.90
8332;DHT22;4203;48.144;14.118;2022-12-18T01:18:56;-6.80;99.90
8332;DHT22;4203;48.144;14.118;2022-12-18T01:21:24;-6.70;99.90
8332;DHT22;4203;48.144;14.118;2022-12-18T01:23:53;-6.60;99.90
8332;DHT22;4203;48.144;14.118;2022-12-18T01:26:21;-6.30;99.90
8332;DHT22;4203;48.144;14.118;2022-12-18T01:28:48;-6.50;99.90
8332;DHT22;4203;48.144;14.118;2022-12-18T01:31:19;-6.40;99.90
8332;DHT22;4203;48.144;14.118;2022-12-18T01:33:46;-6.30;99.90
8332;DHT22;4203;48.144;14.118;2022-12-18T01:36:18;-6.30;99.90
8332;DHT22;4203;48.144;14.118;2022-12-18T01:38:47;-6.20;99.90
8332;DHT22;4203;48.144;14.118;2022-12-18T01:41:17;-6.20;99.90
8332;DHT22;4203;48.144;14.118;2022-12-18T01:43:53;-5.80;99.90
8332;DHT22;4203;48.144;14.118;2022-12-18T01:46:22;-6.10;99.90
8332;DHT22;4203;48.144;14.118;2022-12-18T01:48:50;-6.00;99.90
8332;DHT22;4203;48.144;14.118;2022-12-18T01:51:18;-6.00;99.90
8332;DHT22;4203;48.144;14.118;2022-12-18T01:53:46;-5.90;99.90
8332;DHT22;4203;48.144;14.118;2022-12-18T01:56:16;-5.90;99.90
8332;DHT22;4203;48.144;14.118;2022-12-18T01:58:51;-5.90;99.90
8332;DHT22;4203;48.144;14.118;2022-12-18T02:01:21;-5.90;99.90
8332;DHT22;4203;48.144;14.118;2022-12-18T02:03:49;-5.90;99.90
8332;DHT22;4203;48.144;14.118;2022-12-18T02:06:21;-5.80;99.90
8332;DHT22;4203;48.144;14.118;2022-12-18T02:08:59;-5.80;99.90
8332;DHT22;4203;48.144;14.118;2022-12-18T02:11:39;-5.90;99.90
8332;DHT22;4203;48.144;14.118;2022-12-18T02:14:17;-6.00;99.90
8332;DHT22;4203;48.144;14.118;2022-12-18T02:16:52;-5.90;99.90
8332;DHT22;4203;48.144;14.118;2022-12-18T02:19:39;-6.00;99.90
8332;DHT22;4203;48.144;14.118;2022-12-18T02:22:20;-5.90;99.90
8332;DHT22;4203;48.144;14.118;2022-12-18T02:24:59;-5.80;99.90
8332;DHT22;4203;48.144;14.118;2022-12-18T02:27:32;-5.80;99.90
8332;DHT22;4203;48.144;14.118;2022-12-18T02:30:01;-5.60;99.90
8332;DHT22;4203;48.144;14.118;2022-12-18T02:32:34;-5.60;99.90
8332;DHT22;4203;48.144;14.118;2022-12-18T02:35:05;-5.60;99.90
8332;DHT22;4203;48.144;14.118;2022-12-18T02:37:33;-5.60;99.90
8332;DHT22;4203;48.144;14.118;2022-12-18T02:40:02;-5.60;99.90
8332;DHT22;4203;48.144;14.118;2022-12-18T02:42:32;-5.50;99.90
8332;DHT22;4203;48.144;14.118;2022-12-18T02:45:00;-5.50;99.90
8332;DHT22;4203;48.144;14.118;2022-12-18T02:47:30;-5.50;99.90
8332;DHT22;4203;48.144;14.118;2022-12-18T02:50:04;-5.40;99.90
8332;DHT22;4203;48.144;14.118;2022-12-18T02:52:38;-5.40;99.90
8332;DHT22;4203;48.144;14.118;2022-12-18T02:55:17;-5.40;99.90
8332;DHT22;4203;48.144;14.118;2022-12-18T02:57:50;-5.40;99.90
8332;DHT22;4203;48.144;14.118;2022-12-18T03:00:24;-5.50;99.90
8332;DHT22;4203;48.144;14.118;2022-12-18T03:02:55;-5.50;99.90
8332;DHT22;4203;48.144;14.118;2022-12-18T03:05:30;-5.50;99.90
8332;DHT22;4203;48.144;14.118;2022-12-18T03:08:01;-5.60;99.90
8332;DHT22;4203;48.144;14.118;2022-12-18T03:10:32;-5.60;99.90
8332;DHT22;4203;48.144;14.118;2022-12-18T03:13:04;-5.70;99.90
8332;DHT22;4203;48.144;14.118;2022-12-18T03:15:36;-5.80;99.90
8332;DHT22;4203;48.144;14.118;2022-12-18T03:18:06;-5.80;99.90
8332;DHT22;4203;48.144;14.118;2022-12-18T03:20:37;-5.70;99.90
8332;DHT22;4203;48.144;14.118;2022-12-18T03:23:09;-5.70;99.90
8332;DHT22;4203;48.144;14.118;2022-12-18T03:25:41;-5.80;99.90
8332;DHT22;4203;48.144;14.118;2022-12-18T03:28:14;-5.80;99.90
8332;DHT22;4203;48.144;14.118;2022-12-18T03:30:44;-5.90;99.90
8332;DHT22;4203;48.144;14.118;2022-12-18T03:33:15;-5.90;99.90
8332;DHT22;4203;48.144;14.118;2022-12-18T03:35:45;-6.00;99.90
8332;DHT22;4203;48.144;14.118;2022-12-18T03:38:12;-5.90;99.90
8332;DHT22;4203;48.144;14.118;2022-12-18T03:40:48;-5.90;99.90
8332;DHT22;4203;48.144;14.118;2022-12-18T03:43:27;-5.90;99.90
8332;DHT22;4203;48.144;14.118;2022-12-18T03:46:02;-5.90;99.90
8332;DHT22;4203;48.144;14.118;2022-12-18T03:48:35;-6.00;99.90
8332;DHT22;4203;48.144;14.118;2022-12-18T03:51:07;-6.00;99.90
8332;DHT22;4203;48.144;14.118;2022-12-18T03:53:40;-6.00;99.90
8332;DHT22;4203;48.144;14.118;2022-12-18T03:56:10;-6.10;99.90
8332;DHT22;4203;48.144;14.118;2022-12-18T03:58:40;-6.10;99.90
8332;DHT22;4203;48.144;14.118;2022-12-18T04:01:12;-6.00;99.90
8332;DHT22;4203;48.144;14.118;2022-12-18T04:03:42;-6.10;99.90
8332;DHT22;4203;48.144;14.118;2022-12-18T04:06:10;-6.10;99.90
8332;DHT22;4203;48.144;14.118;2022-12-18T04:08:38;-6.00;99.90
8332;DHT22;4203;48.144;14.118;2022-12-18T04:11:06;-6.00;99.90
8332;DHT22;4203;48.144;14.118;2022-12-18T04:13:36;-6.10;99.90
8332;DHT22;4203;48.144;14.118;2022-12-18T04:16:05;-6.00;99.90
8332;DHT22;4203;48.144;14.118;2022-12-18T04:18:32;-6.00;99.90
8332;DHT22;4203;48.144;14.118;2022-12-18T04:21:00;-5.90;99.90
8332;DHT22;4203;48.144;14.118;2022-12-18T04:23:27;-6.00;99.90
8332;DHT22;4203;48.144;14.118;2022-12-18T04:25:54;-5.90;99.90
8332;DHT22;4203;48.144;14.118;2022-12-18T04:28:21;-5.80;99.90
8332;DHT22;4203;48.144;14.118;2022-12-18T04:30:49;-5.90;99.90
8332;DHT22;4203;48.144;14.118;2022-12-18T04:33:18;-5.80;99.90
8332;DHT22;4203;48.144;14.118;2022-12-18T04:35:45;-5.80;99.90
8332;DHT22;4203;48.144;14.118;2022-12-18T04:38:13;-5.60;99.90
8332;DHT22;4203;48.144;14.118;2022-12-18T04:40:40;-5.70;99.90
8332;DHT22;4203;48.144;14.118;2022-12-18T04:43:07;-5.80;99.90
8332;DHT22;4203;48.144;14.118;2022-12-18T04:45:35;-5.80;99.90
8332;DHT22;4203;48.144;14.118;2022-12-18T04:48:03;-5.70;99.90
8332;DHT22;4203;48.144;14.118;2022-12-18T04:50:32;-5.70;99.90
8332;DHT22;4203;48.144;14.118;2022-12-18T04:52:59;-5.70;99.90
8332;DHT22;4203;48.144;14.118;2022-12-18T04:55:26;-5.70;99.90
8332;DHT22;4203;48.144;14.118;2022-12-18T04:57:53;-5.70;99.90
8332;DHT22;4203;48.144;14.118;2022-12-18T05:00:21;-5.70;99.90
8332;DHT22;4203;48.144;14.118;2022-12-18T05:02:48;-5.50;99.90
8332;DHT22;4203;48.144;14.118;2022-12-18T05:05:16;-5.60;99.90
8332;DHT22;4203;48.144;14.118;2022-12-18T05:07:44;-5.60;99.90
8332;DHT22;4203;48.144;14.118;2022-12-18T05:10:12;-5.60;99.90
8332;DHT22;4203;48.144;14.118;2022-12-18T05:12:39;-5.60;99.90
8332;DHT22;4203;48.144;14.118;2022-12-18T05:15:24;-5.50;99.90
8332;DHT22;4203;48.144;14.118;2022-12-18T05:17:51;-5.60;99.90
8332;DHT22;4203;48.144;14.118;2022-12-18T05:20:18;-5.60;99.90
8332;DHT22;4203;48.144;14.118;2022-12-18T05:22:47;-5.50;99.90
8332;DHT22;4203;48.144;14.118;2022-12-18T05:25:14;-5.50;99.90
8332;DHT22;4203;48.144;14.118;2022-12-18T05:27:41;-5.50;99.90
8332;DHT22;4203;48.144;14.118;2022-12-18T05:30:09;-5.50;99.90
8332;DHT22;4203;48.144;14.118;2022-12-18T05:32:37;-5.50;99.90
8332;DHT22;4203;48.144;14.118;2022-12-18T05:35:06;-5.50;99.90
8332;DHT22;4203;48.144;14.118;2022-12-18T05:37:34;-5.50;99.90
8332;DHT22;4203;48.144;14.118;2022-12-18T05:40:04;-5.50;99.90
8332;DHT22;4203;48.144;14.118;2022-12-18T05:42:31;-5.50;99.90
8332;DHT22;4203;48.144;14.118;2022-12-18T05:44:58;-5.40;99.90
8332;DHT22;4203;48.144;14.118;2022-12-18T05:47:26;-5.50;99.90
8332;DHT22;4203;48.144;14.118;2022-12-18T05:49:53;-5.50;99.90
8332;DHT22;4203;48.144;14.118;2022-12-18T05:52:21;-5.40;99.90
8332;DHT22;4203;48.144;14.118;2022-12-18T05:54:48;-5.40;99.90
8332;DHT22;4203;48.144;14.118;2022-12-18T05:57:16;-5.40;99.90
8332;DHT22;4203;48.144;14.118;2022-12-18T05:59:44;-5.40;99.90
8332;DHT22;4203;48.144;14.118;2022-12-18T06:02:11;-5.40;99.90
8332;DHT22;4203;48.144;14.118;2022-12-18T06:04:38;-5.40;99.90
8332;DHT22;4203;48.144;14.118;2022-12-18T06:07:05;-5.40;99.90
8332;DHT22;4203;48.144;14.118;2022-12-18T06:09:32;-5.40;99.90
8332;DHT22;4203;48.144;14.118;2022-12-18T06:11:59;-5.50;99.90
8332;DHT22;4203;48.144;14.118;2022-12-18T06:14:28;-5.50;99.90
8332;DHT22;4203;48.144;14.118;2022-12-18T06:16:55;-5.50;99.90
8332;DHT22;4203;48.144;14.118;2022-12-18T06:19:22;-5.40;99.90
8332;DHT22;4203;48.144;14.118;2022-12-18T06:21:49;-5.50;99.90
8332;DHT22;4203;48.144;14.118;2022-12-18T06:24:17;-5.50;99.90
8332;DHT22;4203;48.144;14.118;2022-12-18T06:26:44;-5.50;99.90
8332;DHT22;4203;48.144;14.118;2022-12-18T06:29:11;-5.50;99.90
8332;DHT22;4203;48.144;14.118;2022-12-18T06:31:40;-5.50;99.90
8332;DHT22;4203;48.144;14.118;2022-12-18T06:34:07;-5.40;99.90
8332;DHT22;4203;48.144;14.118;2022-12-18T06:36:34;-5.50;99.90
8332;DHT22;4203;48.144;14.118;2022-12-18T06:39:01;-5.40;99.90
8332;DHT22;4203;48.144;14.118;2022-12-18T06:41:28;-5.50;99.90
8332;DHT22;4203;48.144;14.118;2022-12-18T06:43:55;-5.40;99.90
8332;DHT22;4203;48.144;14.118;2022-12-18T06:46:24;-5.40;99.90
8332;DHT22;4203;48.144;14.118;2022-12-18T06:48:53;-5.40;99.90
8332;DHT22;4203;48.144;14.118;2022-12-18T06:51:21;-5.40;99.90
8332;DHT22;4203;48.144;14.118;2022-12-18T06:53:49;-5.50;99.90
8332;DHT22;4203;48.144;14.118;2022-12-18T06:56:16;-5.50;99.90
8332;DHT22;4203;48.144;14.118;2022-12-18T06:58:43;-5.40;99.90
8332;DHT22;4203;48.144;14.118;2022-12-18T07:01:12;-5.40;99.90
8332;DHT22;4203;48.144;14.118;2022-12-18T07:03:40;-5.30;99.90
8332;DHT22;4203;48.144;14.118;2022-12-18T07:06:14;-5.30;99.90
8332;DHT22;4203;48.144;14.118;2022-12-18T07:08:42;-5.40;99.90
8332;DHT22;4203;48.144;14.118;2022-12-18T07:11:09;-5.40;99.90
8332;DHT22;4203;48.144;14.118;2022-12-18T07:13:36;-5.30;99.90
8332;DHT22;4203;48.144;14.118;2022-12-18T07:16:05;-5.20;99.90
8332;DHT22;4203;48.144;14.118;2022-12-18T07:18:32;-5.20;99.90
8332;DHT22;4203;48.144;14.118;2022-12-18T07:21:03;-5.20;99.90
8332;DHT22;4203;48.144;14.118;2022-12-18T07:23:34;-5.20;99.90
8332;DHT22;4203;48.144;14.118;2022-12-18T07:26:03;-5.20;99.90
8332;DHT22;4203;48.144;14.118;2022-12-18T07:28:30;-5.20;99.90
8332;DHT22;4203;48.144;14.118;2022-12-18T07:30:58;-5.20;99.90
8332;DHT22;4203;48.144;14.118;2022-12-18T07:33:25;-5.20;99.90
8332;DHT22;4203;48.144;14.118;2022-12-18T07:35:52;-5.10;99.90
8332;DHT22;4203;48.144;14.118;2022-12-18T07:38:20;-5.10;99.90
8332;DHT22;4203;48.144;14.118;2022-12-18T07:40:48;-5.10;99.90
8332;DHT22;4203;48.144;14.118;2022-12-18T07:43:15;-5.00;99.90
8332;DHT22;4203;48.144;14.118;2022-12-18T07:45:42;-5.10;99.90
8332;DHT22;4203;48.144;14.118;2022-12-18T07:48:09;-5.20;99.90
8332;DHT22;4203;48.144;14.118;2022-12-18T07:50:37;-5.20;99.90
8332;DHT22;4203;48.144;14.118;2022-12-18T07:53:04;-5.30;99.90
8332;DHT22;4203;48.144;14.118;2022-12-18T07:55:31;-5.50;99.90
8332;DHT22;4203;48.144;14.118;2022-12-18T07:58:02;-5.50;99.90
8332;DHT22;4203;48.144;14.118;2022-12-18T08:00:29;-5.40;99.90
8332;DHT22;4203;48.144;14.118;2022-12-18T08:02:57;-5.30;99.90
8332;DHT22;4203;48.144;14.118;2022-12-18T08:05:24;-5.20;99.90
8332;DHT22;4203;48.144;14.118;2022-12-18T08:07:51;-5.10;99.90
8332;DHT22;4203;48.144;14.118;2022-12-18T08:10:19;-5.00;99.90
8332;DHT22;4203;48.144;14.118;2022-12-18T08:12:49;-5.00;99.90
8332;DHT22;4203;48.144;14.118;2022-12-18T08:15:17;-4.90;99.90
8332;DHT22;4203;48.144;14.118;2022-12-18T08:17:45;-4.80;99.90
8332;DHT22;4203;48.144;14.118;2022-12-18T08:20:12;-4.70;99.90
8332;DHT22;4203;48.144;14.118;2022-12-18T08:22:40;-4.70;99.90
8332;DHT22;4203;48.144;14.118;2022-12-18T08:25:08;-4.70;99.90
8332;DHT22;4203;48.144;14.118;2022-12-18T08:27:35;-4.70;99.90
8332;DHT22;4203;48.144;14.118;2022-12-18T08:30:03;-4.70;99.90
8332;DHT22;4203;48.144;14.118;2022-12-18T08:32:32;-4.60;99.90
8332;DHT22;4203;48.144;14.118;2022-12-18T08:34:59;-4.60;99.90
8332;DHT22;4203;48.144;14.118;2022-12-18T08:37:26;-4.50;99.90
8332;DHT22;4203;48.144;14.118;2022-12-18T08:39:54;-4.40;99.90
8332;DHT22;4203;48.144;14.118;2022-12-18T08:42:21;-4.50;99.90
8332;DHT22;4203;48.144;14.118;2022-12-18T08:45:06;-4.40;99.90
8332;DHT22;4203;48.144;14.118;2022-12-18T08:47:34;-4.50;99.90
8332;DHT22;4203;48.144;14.118;2022-12-18T08:50:02;-4.40;99.90
8332;DHT22;4203;48.144;14.118;2022-12-18T08:52:31;-4.30;99.90
8332;DHT22;4203;48.144;14.118;2022-12-18T08:54:58;-4.30;99.90
8332;DHT22;4203;48.144;14.118;2022-12-18T08:57:25;-4.20;99.90
8332;DHT22;4203;48.144;14.118;2022-12-18T08:59:52;-4.10;99.90
8332;DHT22;4203;48.144;14.118;2022-12-18T09:02:20;-4.00;99.90
8332;DHT22;4203;48.144;14.118;2022-12-18T09:04:48;-3.90;99.90
8332;DHT22;4203;48.144;14.118;2022-12-18T09:07:16;-3.80;99.90
8332;DHT22;4203;48.144;14.118;2022-12-18T09:09:44;-3.90;99.90
8332;DHT22;4203;48.144;14.118;2022-12-18T09:12:11;-3.90;99.90
8332;DHT22;4203;48.144;14.118;2022-12-18T09:14:38;-3.80;99.90
8332;DHT22;4203;48.144;14.118;2022-12-18T09:17:05;-3.90;99.90
8332;DHT22;4203;48.144;14.118;2022-12-18T09:19:33;-3.90;99.90
8332;DHT22;4203;48.144;14.118;2022-12-18T09:22:01;-4.00;99.90
8332;DHT22;4203;48.144;14.118;2022-12-18T09:24:28;-4.00;99.90
8332;DHT22;4203;48.144;14.118;2022-12-18T09:26:55;-3.90;99.90
8332;DHT22;4203;48.144;14.118;2022-12-18T09:29:22;-3.80;99.90
8332;DHT22;4203;48.144;14.118;2022-12-18T09:31:49;-3.60;99.90
8332;DHT22;4203;48.144;14.118;2022-12-18T09:34:17;-3.40;99.90
8332;DHT22;4203;48.144;14.118;2022-12-18T09:36:46;-3.10;99.90
8332;DHT22;4203;48.144;14.118;2022-12-18T09:39:15;-3.00;99.90
8332;DHT22;4203;48.144;14.118;2022-12-18T09:41:46;-2.80;99.90
8332;DHT22;4203;48.144;14.118;2022-12-18T09:44:24;-2.80;99.90
8332;DHT22;4203;48.144;14.118;2022-12-18T09:47:03;-2.90;99.90
8332;DHT22;4203;48.144;14.118;2022-12-18T09:49:38;-3.10;99.90
8332;DHT22;4203;48.144;14.118;2022-12-18T09:52:11;-3.20;99.90
8332;DHT22;4203;48.144;14.118;2022-12-18T09:54:47;-3.30;99.90
8332;DHT22;4203;48.144;14.118;2022-12-18T09:57:19;-3.30;99.90
8332;DHT22;4203;48.144;14.118;2022-12-18T09:59:52;-3.40;99.90
8332;DHT22;4203;48.144;14.118;2022-12-18T10:02:21;-3.30;99.90
8332;DHT22;4203;48.144;14.118;2022-12-18T10:05:00;-3.10;99.90
8332;DHT22;4203;48.144;14.118;2022-12-18T10:07:42;-3.20;99.90
8332;DHT22;4203;48.144;14.118;2022-12-18T10:10:21;-3.10;99.90
8332;DHT22;4203;48.144;14.118;2022-12-18T10:12:56;-3.00;99.90
8332;DHT22;4203;48.144;14.118;2022-12-18T10:15:32;-3.00;99.90
8332;DHT22;4203;48.144;14.118;2022-12-18T10:18:06;-3.00;99.90
8332;DHT22;4203;48.144;14.118;2022-12-18T10:20:41;-2.80;99.90
8332;DHT22;4203;48.144;14.118;2022-12-18T10:23:17;-2.60;99.90
8332;DHT22;4203;48.144;14.118;2022-12-18T10:25:51;-2.30;99.90
8332;DHT22;4203;48.144;14.118;2022-12-18T10:28:21;-2.20;99.90
8332;DHT22;4203;48.144;14.118;2022-12-18T10:30:49;-2.30;99.90
8332;DHT22;4203;48.144;14.118;2022-12-18T10:33:18;-2.50;99.90
8332;DHT22;4203;48.144;14.118;2022-12-18T10:35:47;-2.60;99.90
8332;DHT22;4203;48.144;14.118;2022-12-18T10:38:23;-2.70;99.90
8332;DHT22;4203;48.144;14.118;2022-12-18T10:40:54;-2.40;99.90
8332;DHT22;4203;48.144;14.118;2022-12-18T10:43:24;-2.30;99.90
8332;DHT22;4203;48.144;14.118;2022-12-18T10:46:01;-2.30;99.90
8332;DHT22;4203;48.144;14.118;2022-12-18T10:48:30;-2.10;99.90
8332;DHT22;4203;48.144;14.118;2022-12-18T10:50:59;-1.70;99.90
8332;DHT22;4203;48.144;14.118;2022-12-18T10:53:28;-1.40;99.90
8332;DHT22;4203;48.144;14.118;2022-12-18T10:55:58;-1.30;99.90
8332;DHT22;4203;48.144;14.118;2022-12-18T10:58:27;-1.50;99.90
8332;DHT22;4203;48.144;14.118;2022-12-18T11:01:07;-1.80;99.90
8332;DHT22;4203;48.144;14.118;2022-12-18T11:03:36;-2.00;99.90
8332;DHT22;4203;48.144;14.118;2022-12-18T11:06:10;-2.10;99.90
8332;DHT22;4203;48.144;14.118;2022-12-18T11:08:38;-2.10;99.90
8332;DHT22;4203;48.144;14.118;2022-12-18T11:11:19;-2.10;99.90
8332;DHT22;4203;48.144;14.118;2022-12-18T11:16:43;-1.90;99.90
8332;DHT22;4203;48.144;14.118;2022-12-18T11:19:24;-1.90;99.90
8332;DHT22;4203;48.144;14.118;2022-12-18T11:21:52;-1.60;99.90
8332;DHT22;4203;48.144;14.118;2022-12-18T11:24:24;-1.40;99.90
8332;DHT22;4203;48.144;14.118;2022-12-18T11:26:55;-1.00;99.90
8332;DHT22;4203;48.144;14.118;2022-12-18T11:29:27;-0.50;99.90
8332;DHT22;4203;48.144;14.118;2022-12-18T11:32:28;-0.10;99.90
8332;DHT22;4203;48.144;14.118;2022-12-18T11:34:59;0.80;99.90
8332;DHT22;4203;48.144;14.118;2022-12-18T11:37:28;2.30;99.90
8332;DHT22;4203;48.144;14.118;2022-12-18T11:39:59;3.00;99.90
8332;DHT22;4203;48.144;14.118;2022-12-18T11:42:35;3.80;99.90
8332;DHT22;4203;48.144;14.118;2022-12-18T11:45:23;5.10;99.90
8332;DHT22;4203;48.144;14.118;2022-12-18T11:47:56;6.10;99.90
8332;DHT22;4203;48.144;14.118;2022-12-18T11:50:27;7.00;99.90
8332;DHT22;4203;48.144;14.118;2022-12-18T11:52:55;7.90;99.30
8332;DHT22;4203;48.144;14.118;2022-12-18T11:55:29;8.00;99.40
8332;DHT22;4203;48.144;14.118;2022-12-18T11:58:05;8.40;96.20
8332;DHT22;4203;48.144;14.118;2022-12-18T12:00:37;8.70;95.50
8332;DHT22;4203;48.144;14.118;2022-12-18T12:03:29;9.10;95.00
8332;DHT22;4203;48.144;14.118;2022-12-18T12:06:08;9.20;93.90
8332;DHT22;4203;48.144;14.118;2022-12-18T12:08:49;9.80;93.30
8332;DHT22;4203;48.144;14.118;2022-12-18T12:11:26;10.80;90.90
8332;DHT22;4203;48.144;14.118;2022-12-18T12:14:13;10.90;89.60
8332;DHT22;4203;48.144;14.118;2022-12-18T12:16:48;11.50;87.20
8332;DHT22;4203;48.144;14.118;2022-12-18T12:19:29;12.00;84.90
8332;DHT22;4203;48.144;14.118;2022-12-18T12:22:05;11.90;84.10
8332;DHT22;4203;48.144;14.118;2022-12-18T12:24:43;11.60;84.10
8332;DHT22;4203;48.144;14.118;2022-12-18T12:27:19;11.50;82.50
8332;DHT22;4203;48.144;14.118;2022-12-18T12:30:00;11.50;80.90
8332;DHT22;4203;48.144;14.118;2022-12-18T12:32:41;11.40;82.70
8332;DHT22;4203;48.144;14.118;2022-12-18T12:35:19;11.30;80.80
8332;DHT22;4203;48.144;14.118;2022-12-18T12:37:53;10.50;81.60
8332;DHT22;4203;48.144;14.118;2022-12-18T12:40:26;9.60;84.60
8332;DHT22;4203;48.144;14.118;2022-12-18T12:42:56;8.40;90.00
8332;DHT22;4203;48.144;14.118;2022-12-18T12:45:44;7.10;92.00
8332;DHT22;4203;48.144;14.118;2022-12-18T12:48:18;5.30;95.30
8332;DHT22;4203;48.144;14.118;2022-12-18T12:50:48;4.20;99.90
8332;DHT22;4203;48.144;14.118;2022-12-18T12:53:23;3.60;99.90
8332;DHT22;4203;48.144;14.118;2022-12-18T12:55:51;3.20;99.90
8332;DHT22;4203;48.144;14.118;2022-12-18T12:58:28;3.40;99.90
8332;DHT22;4203;48.144;14.118;2022-12-18T13:01:10;3.40;99.90
8332;DHT22;4203;48.144;14.118;2022-12-18T13:03:47;3.10;99.90
8332;DHT22;4203;48.144;14.118;2022-12-18T13:06:27;2.70;99.90
8332;DHT22;4203;48.144;14.118;2022-12-18T13:08:59;1.80;99.90
8332;DHT22;4203;48.144;14.118;2022-12-18T13:11:38;1.00;99.90
8332;DHT22;4203;48.144;14.118;2022-12-18T13:14:26;0.20;99.90
8332;DHT22;4203;48.144;14.118;2022-12-18T13:17:17;-0.40;99.90
8332;DHT22;4203;48.144;14.118;2022-12-18T13:20:04;-0.60;99.90
8332;DHT22;4203;48.144;14.118;2022-12-18T13:22:35;-0.90;99.90
8332;DHT22;4203;48.144;14.118;2022-12-18T13:25:04;-1.00;99.90
8332;DHT22;4203;48.144;14.118;2022-12-18T13:28:02;-1.20;99.90
8332;DHT22;4203;48.144;14.118;2022-12-18T13:30:50;-1.40;99.90
8332;DHT22;4203;48.144;14.118;2022-12-18T13:33:48;-1.50;99.90
8332;DHT22;4203;48.144;14.118;2022-12-18T13:36:31;-1.70;99.90
8332;DHT22;4203;48.144;14.118;2022-12-18T13:39:31;-1.90;99.90
8332;DHT22;4203;48.144;14.118;2022-12-18T13:45:39;-2.40;99.90
8332;DHT22;4203;48.144;14.118;2022-12-18T13:48:18;-2.50;99.90
8332;DHT22;4203;48.144;14.118;2022-12-18T13:50:53;-2.60;99.90
8332;DHT22;4203;48.144;14.118;2022-12-18T13:53:24;-2.70;99.90
8332;DHT22;4203;48.144;14.118;2022-12-18T13:55:53;-2.80;99.90
8332;DHT22;4203;48.144;14.118;2022-12-18T13:58:20;-2.90;99.90
8332;DHT22;4203;48.144;14.118;2022-12-18T14:00:47;-3.00;99.90
8332;DHT22;4203;48.144;14.118;2022-12-18T14:03:20;-3.10;99.90
8332;DHT22;4203;48.144;14.118;2022-12-18T14:05:55;-3.00;99.90
8332;DHT22;4203;48.144;14.118;2022-12-18T14:08:29;-3.00;99.90
8332;DHT22;4203;48.144;14.118;2022-12-18T14:10:59;-2.80;99.90
8332;DHT22;4203;48.144;14.118;2022-12-18T14:13:29;-2.80;99.90
8332;DHT22;4203;48.144;14.118;2022-12-18T14:15:57;-2.80;99.90
8332;DHT22;4203;48.144;14.118;2022-12-18T14:18:38;-3.00;99.90
8332;DHT22;4203;48.144;14.118;2022-12-18T14:21:20;-3.20;99.90
8332;DHT22;4203;48.144;14.118;2022-12-18T14:23:47;-3.30;99.90
8332;DHT22;4203;48.144;14.118;2022-12-18T14:26:23;-3.30;99.90
8332;DHT22;4203;48.144;14.118;2022-12-18T14:28:53;-3.30;99.90
8332;DHT22;4203;48.144;14.118;2022-12-18T14:31:23;-3.40;99.90
8332;DHT22;4203;48.144;14.118;2022-12-18T14:33:51;-3.50;99.90
8332;DHT22;4203;48.144;14.118;2022-12-18T14:36:22;-3.60;99.90
8332;DHT22;4203;48.144;14.118;2022-12-18T14:38:51;-3.50;99.90
8332;DHT22;4203;48.144;14.118;2022-12-18T14:41:20;-3.50;99.90
8332;DHT22;4203;48.144;14.118;2022-12-18T14:43:49;-3.60;99.90
8332;DHT22;4203;48.144;14.118;2022-12-18T14:46:29;-3.70;99.90
8332;DHT22;4203;48.144;14.118;2022-12-18T14:48:57;-3.70;99.90
8332;DHT22;4203;48.144;14.118;2022-12-18T14:51:30;-3.70;99.90
8332;DHT22;4203;48.144;14.118;2022-12-18T14:53:59;-3.60;99.90
8332;DHT22;4203;48.144;14.118;2022-12-18T14:56:28;-3.70;99.90
8332;DHT22;4203;48.144;14.118;2022-12-18T14:58:58;-3.70;99.90
8332;DHT22;4203;48.144;14.118;2022-12-18T15:01:28;-3.80;99.90
8332;DHT22;4203;48.144;14.118;2022-12-18T15:03:57;-3.80;99.90
8332;DHT22;4203;48.144;14.118;2022-12-18T15:06:29;-3.80;99.90
8332;DHT22;4203;48.144;14.118;2022-12-18T15:08:58;-3.80;99.90
8332;DHT22;4203;48.144;14.118;2022-12-18T15:11:33;-3.90;99.90
8332;DHT22;4203;48.144;14.118;2022-12-18T15:14:32;-3.90;99.90
8332;DHT22;4203;48.144;14.118;2022-12-18T15:17:02;-4.00;99.90
8332;DHT22;4203;48.144;14.118;2022-12-18T15:19:38;-4.00;99.90
8332;DHT22;4203;48.144;14.118;2022-12-18T15:22:19;-3.90;99.90
8332;DHT22;4203;48.144;14.118;2022-12-18T15:24:46;-4.00;99.90
8332;DHT22;4203;48.144;14.118;2022-12-18T15:27:29;-4.00;99.90
8332;DHT22;4203;48.144;14.118;2022-12-18T15:30:01;-4.10;99.90
8332;DHT22;4203;48.144;14.118;2022-12-18T15:32:28;-4.00;99.90
8332;DHT22;4203;48.144;14.118;2022-12-18T15:35:03;-4.10;99.90
8332;DHT22;4203;48.144;14.118;2022-12-18T15:37:32;-4.10;99.90
8332;DHT22;4203;48.144;14.118;2022-12-18T15:39:59;-4.10;99.90
8332;DHT22;4203;48.144;14.118;2022-12-18T15:42:27;-4.10;99.90
8332;DHT22;4203;48.144;14.118;2022-12-18T15:45:12;-4.10;99.90
8332;DHT22;4203;48.144;14.118;2022-12-18T15:47:39;-4.10;99.90
8332;DHT22;4203;48.144;14.118;2022-12-18T15:50:08;-4.00;99.90
8332;DHT22;4203;48.144;14.118;2022-12-18T15:52:41;-4.10;99.90
8332;DHT22;4203;48.144;14.118;2022-12-18T15:55:11;-4.00;99.90
8332;DHT22;4203;48.144;14.118;2022-12-18T15:57:56;-4.00;99.90
8332;DHT22;4203;48.144;14.118;2022-12-18T16:00:23;-4.10;99.90
8332;DHT22;4203;48.144;14.118;2022-12-18T16:02:50;-4.10;99.90
8332;DHT22;4203;48.144;14.118;2022-12-18T16:05:19;-4.10;99.90
8332;DHT22;4203;48.144;14.118;2022-12-18T16:07:48;-4.10;99.90
8332;DHT22;4203;48.144;14.118;2022-12-18T16:10:16;-4.10;99.90
8332;DHT22;4203;48.144;14.118;2022-12-18T16:12:43;-4.10;99.90
8332;DHT22;4203;48.144;14.118;2022-12-18T16:15:11;-4.10;99.90
8332;DHT22;4203;48.144;14.118;2022-12-18T16:17:39;-4.20;99.90